Time;durP1;ratioP1;P1;durP2;ratioP2;P2;SDS_P1;SDS_P2;PMS_P1;PMS_P2;Temp;Humidity;BMP_temperature;BMP_pressure;BME280_temperature;BME280_humidity;BME280_pressure;Samples;Min_cycle;Max_cycle;Signal;HPM_P1;HPM_P2
2022/03/29 00:00:33;;;;;;;25.02;17.38;;;6.80;99.90;;;;;;5013549;28;20033;-92
2022/03/29 00:03:01;;;;;;;27.58;18.67;;;6.90;99.90;;;;;;4975518;28;20120;-92
2022/03/29 00:05:27;;;;;;;28.02;17.27;;;7.30;99.90;;;;;;5013252;28;20041;-91
2022/03/29 00:07:53;;;;;;;26.60;17.58;;;8.00;99.90;;;;;;4999392;28;20041;-91
2022/03/29 00:10:18;;;;;;;28.92;18.17;;;6.80;99.90;;;;;;4998285;28;20041;-91
2022/03/29 00:12:44;;;;;;;27.80;18.40;;;6.90;99.90;;;;;;4999167;28;20030;-91
2022/03/29 00:15:11;;;;;;;29.08;18.13;;;7.00;99.90;;;;;;4999121;28;20052;-86
2022/03/29 00:17:37;;;;;;;26.73;17.98;;;6.90;99.90;;;;;;5015163;28;20083;-87
2022/03/29 00:20:03;;;;;;;27.70;19.00;;;6.80;99.90;;;;;;5015373;28;20041;-86
2022/03/29 00:22:29;;;;;;;27.67;18.20;;;6.70;99.90;;;;;;5015018;28;20045;-86
2022/03/29 00:24:55;;;;;;;27.08;17.55;;;6.90;99.90;;;;;;4998684;28;20053;-86
2022/03/29 00:27:21;;;;;;;27.98;18.58;;;6.80;99.90;;;;;;5015122;28;20033;-86
2022/03/29 00:29:48;;;;;;;27.45;17.70;;;6.90;99.90;;;;;;5015236;28;20099;-86
2022/03/29 00:32:13;;;;;;;28.20;17.23;;;6.80;99.90;;;;;;4998892;28;20037;-85
2022/03/29 00:34:40;;;;;;;30.70;17.95;;;6.80;99.90;;;;;;5011360;28;20403;-85
2022/03/29 00:37:06;;;;;;;26.90;17.58;;;6.80;99.90;;;;;;4998300;28;20112;-86
2022/03/29 00:39:32;;;;;;;27.30;18.05;;;6.80;99.90;;;;;;5014127;28;20095;-86
2022/03/29 00:42:00;;;;;;;28.05;17.27;;;6.90;99.90;;;;;;5012801;28;20069;-86
2022/03/29 00:44:31;;;;;;;32.33;17.92;;;7.40;99.90;;;;;;4978047;28;20034;-86
2022/03/29 00:47:00;;;;;;;26.48;17.13;;;6.80;99.90;;;;;;4998507;28;20411;-86
2022/03/29 00:49:27;;;;;;;29.35;16.50;;;6.80;99.90;;;;;;5014395;28;20483;-92
2022/03/29 00:51:58;;;;;;;28.85;17.42;;;6.90;99.90;;;;;;4991933;28;20091;-92
2022/03/29 00:54:29;;;;;;;27.30;16.92;;;7.10;99.90;;;;;;5015178;28;20116;-92
2022/03/29 00:57:00;;;;;;;30.23;16.45;;;7.30;99.90;;;;;;5012889;28;20077;-92
2022/03/29 00:59:27;;;;;;;31.48;18.23;;;7.20;99.90;;;;;;4977374;28;20041;-92
2022/03/29 01:01:53;;;;;;;26.13;17.83;;;7.20;99.90;;;;;;4991002;23;20115;-87
2022/03/29 01:04:21;;;;;;;26.58;16.70;;;7.20;99.90;;;;;;5016049;28;20107;-87
2022/03/29 01:06:46;;;;;;;25.58;17.13;;;7.70;99.90;;;;;;5033731;28;20037;-86
2022/03/29 01:09:13;;;;;;;27.75;17.35;;;7.40;99.90;;;;;;5016032;28;20033;-86
2022/03/29 01:11:39;;;;;;;26.90;17.20;;;8.00;99.90;;;;;;5029035;28;20030;-87
2022/03/29 01:14:05;;;;;;;29.08;17.27;;;7.70;99.90;;;;;;5017018;28;20087;-86
2022/03/29 01:19:24;;;;;;;28.95;17.38;;;7.80;99.90;;;;;;5028956;28;20042;-86
2022/03/29 01:21:58;;;;;;;27.83;16.42;;;7.00;99.90;;;;;;5027992;28;20034;-86
2022/03/29 01:24:25;;;;;;;28.25;17.23;;;7.00;99.90;;;;;;5028766;28;20038;-85
2022/03/29 01:26:53;;;;;;;26.38;16.83;;;7.00;99.90;;;;;;5027593;28;20041;-85
2022/03/29 01:29:20;;;;;;;30.50;17.60;;;7.20;99.90;;;;;;4994879;28;20037;-85
2022/03/29 01:31:51;;;;;;;29.15;17.30;;;7.20;99.90;;;;;;5030942;28;20041;-86
2022/03/29 01:34:21;;;;;;;25.45;16.00;;;7.60;99.90;;;;;;5016128;28;20368;-85
2022/03/29 01:36:48;;;;;;;29.83;18.38;;;7.00;99.90;;;;;;5030448;28;20473;-85
2022/03/29 01:39:14;;;;;;;26.52;16.52;;;7.00;99.90;;;;;;5030405;28;20113;-85
2022/03/29 01:41:40;;;;;;;35.97;18.33;;;6.90;99.90;;;;;;5031880;28;20457;-85
2022/03/29 01:44:10;;;;;;;29.88;17.77;;;6.90;99.90;;;;;;5032997;28;20046;-85
2022/03/29 01:46:37;;;;;;;32.15;17.95;;;7.00;99.90;;;;;;5049516;28;20065;-86
2022/03/29 01:49:04;;;;;;;27.55;17.75;;;6.90;99.90;;;;;;5048135;28;20033;-85
2022/03/29 01:51:30;;;;;;;28.27;18.17;;;6.90;99.90;;;;;;5030002;28;20391;-85
2022/03/29 01:53:59;;;;;;;25.98;16.75;;;6.90;99.90;;;;;;5012395;28;20044;-85
2022/03/29 01:56:33;;;;;;;29.80;17.73;;;6.90;99.90;;;;;;5031203;28;20124;-86
2022/03/29 01:59:03;;;;;;;29.13;17.50;;;6.90;99.90;;;;;;5028125;28;20080;-86
2022/03/29 02:01:28;;;;;;;28.52;17.23;;;7.00;99.90;;;;;;5028328;28;20549;-86
2022/03/29 02:03:54;;;;;;;32.78;18.15;;;7.20;99.90;;;;;;5030233;28;20049;-87
2022/03/29 02:06:20;;;;;;;30.48;17.45;;;6.90;99.90;;;;;;5030472;28;20464;-86
2022/03/29 02:08:46;;;;;;;31.02;17.58;;;7.90;99.90;;;;;;5015720;28;20040;-86
2022/03/29 02:11:13;;;;;;;27.17;16.50;;;6.90;99.90;;;;;;4980815;28;20509;-86
2022/03/29 02:13:39;;;;;;;24.40;16.25;;;6.90;99.90;;;;;;5014148;28;20131;-86
2022/03/29 02:16:05;;;;;;;29.42;17.83;;;6.90;99.90;;;;;;5014300;28;20081;-85
2022/03/29 02:18:31;;;;;;;27.42;16.92;;;7.30;99.90;;;;;;5010389;28;20510;-85
2022/03/29 02:20:56;;;;;;;25.58;17.00;;;6.90;99.90;;;;;;5031578;28;20039;-85
2022/03/29 02:23:22;;;;;;;27.48;17.00;;;6.90;99.90;;;;;;5032091;28;20035;-85
2022/03/29 02:25:48;;;;;;;26.77;16.40;;;6.90;99.90;;;;;;5032324;28;20109;-85
2022/03/29 02:28:14;;;;;;;28.23;16.95;;;7.30;99.90;;;;;;5032050;28;20128;-85
2022/03/29 02:30:40;;;;;;;27.05;16.30;;;6.80;99.90;;;;;;5032075;28;20502;-85
2022/03/29 02:33:06;;;;;;;26.70;16.52;;;6.80;99.90;;;;;;5032736;28;20045;-85
2022/03/29 02:35:32;;;;;;;26.63;16.67;;;6.90;99.90;;;;;;5015186;28;20037;-85
2022/03/29 02:37:59;;;;;;;26.80;17.48;;;6.80;99.90;;;;;;5031720;28;20063;-85
2022/03/29 02:40:25;;;;;;;28.05;16.83;;;6.80;99.90;;;;;;5029318;28;20033;-85
2022/03/29 02:42:52;;;;;;;27.08;16.20;;;6.80;99.90;;;;;;5031010;28;20037;-85
2022/03/29 02:45:20;;;;;;;30.73;16.13;;;6.80;99.90;;;;;;5030868;28;20049;-86
2022/03/29 02:47:48;;;;;;;28.38;16.67;;;7.10;99.90;;;;;;5013062;28;20037;-86
2022/03/29 02:50:15;;;;;;;26.25;16.73;;;7.30;99.90;;;;;;5032304;28;20034;-86
2022/03/29 02:52:48;;;;;;;28.75;15.57;;;6.80;99.90;;;;;;5016463;28;20037;-86
2022/03/29 02:55:15;;;;;;;28.65;16.55;;;6.80;99.90;;;;;;5032520;28;20103;-87
2022/03/29 02:57:42;;;;;;;27.33;16.15;;;6.80;99.90;;;;;;5014092;28;20549;-86
2022/03/29 03:00:10;;;;;;;26.73;16.13;;;7.60;99.90;;;;;;5032680;28;20091;-86
2022/03/29 03:02:36;;;;;;;28.15;16.23;;;6.80;99.90;;;;;;4999664;28;20049;-86
2022/03/29 03:05:03;;;;;;;28.25;16.15;;;7.10;99.90;;;;;;5029433;28;20123;-85
2022/03/29 03:07:29;;;;;;;26.08;16.13;;;6.80;99.90;;;;;;5030325;28;20084;-85
2022/03/29 03:09:55;;;;;;;29.08;17.38;;;6.70;99.90;;;;;;5031507;28;20033;-85
2022/03/29 03:12:21;;;;;;;29.02;17.45;;;6.70;99.90;;;;;;5047016;28;20635;-85
2022/03/29 03:14:48;;;;;;;27.67;16.40;;;6.70;99.90;;;;;;5028030;28;20045;-85
2022/03/29 03:17:14;;;;;;;30.10;17.75;;;7.80;99.90;;;;;;5032005;28;20427;-85
2022/03/29 03:19:39;;;;;;;30.48;17.35;;;6.70;99.90;;;;;;5006386;28;20034;-91
2022/03/29 03:22:05;;;;;;;29.45;17.63;;;6.70;99.90;;;;;;5027797;28;20095;-92
2022/03/29 03:24:31;;;;;;;30.15;17.30;;;6.70;99.90;;;;;;5016128;28;20474;-92
2022/03/29 03:26:57;;;;;;;29.88;17.60;;;7.30;99.90;;;;;;5032343;28;20476;-91
2022/03/29 03:29:22;;;;;;;31.48;17.52;;;6.80;99.90;;;;;;5032537;28;20120;-91
2022/03/29 03:31:49;;;;;;;32.47;17.52;;;6.60;99.90;;;;;;5015934;28;20523;-91
2022/03/29 03:34:15;;;;;;;31.02;17.33;;;7.30;99.90;;;;;;5032296;28;20037;-91
2022/03/29 03:36:40;;;;;;;32.10;18.83;;;6.60;99.90;;;;;;5012128;28;20495;-85
2022/03/29 03:39:06;;;;;;;31.35;18.00;;;6.60;99.90;;;;;;5032059;28;20040;-85
2022/03/29 03:41:32;;;;;;;30.75;18.33;;;6.60;99.90;;;;;;5014577;28;20536;-85
2022/03/29 03:43:58;;;;;;;28.38;17.75;;;7.20;99.90;;;;;;5004071;28;20053;-85
2022/03/29 03:46:24;;;;;;;31.08;18.27;;;6.60;99.90;;;;;;5031735;28;20086;-85
2022/03/29 03:48:50;;;;;;;33.10;18.90;;;7.40;99.90;;;;;;5015102;28;20076;-85
2022/03/29 03:51:16;;;;;;;30.25;18.63;;;;;;;;;;5031600;28;20076;-86
2022/03/29 03:53:42;;;;;;;32.38;17.98;;;6.60;99.90;;;;;;5032279;28;20037;-86
2022/03/29 03:56:08;;;;;;;32.65;18.80;;;7.20;99.90;;;;;;5031738;28;20043;-86
2022/03/29 03:58:33;;;;;;;28.27;17.58;;;6.60;99.90;;;;;;5031683;28;20033;-86
2022/03/29 04:00:59;;;;;;;28.92;18.55;;;6.60;99.90;;;;;;5029751;28;20045;-86
2022/03/29 04:03:25;;;;;;;28.85;18.92;;;7.50;99.90;;;;;;5015274;28;20056;-86
2022/03/29 04:05:52;;;;;;;32.22;17.95;;;6.60;99.90;;;;;;4998663;28;20048;-86
2022/03/29 04:08:18;;;;;;;34.33;19.15;;;6.60;99.90;;;;;;5015548;28;20120;-91
2022/03/29 04:10:44;;;;;;;29.98;17.88;;;6.60;99.90;;;;;;5031945;28;20038;-92
2022/03/29 04:13:10;;;;;;;34.85;19.10;;;7.00;99.90;;;;;;4998637;28;20144;-92
2022/03/29 04:15:36;;;;;;;31.20;19.35;;;6.70;99.90;;;;;;5028573;28;20095;-92
2022/03/29 04:18:01;;;;;;;31.15;18.10;;;7.00;99.90;;;;;;5013325;28;20038;-92
2022/03/29 04:20:29;;;;;;;32.60;18.80;;;6.60;99.90;;;;;;5030971;28;20046;-92
2022/03/29 04:22:55;;;;;;;32.63;18.58;;;6.60;99.90;;;;;;5031394;28;20119;-92
2022/03/29 04:25:22;;;;;;;34.15;18.90;;;6.60;99.90;;;;;;5031677;28;20049;-92
2022/03/29 04:27:47;;;;;;;33.83;19.77;;;6.60;99.90;;;;;;5015294;28;20093;-92
2022/03/29 04:30:13;;;;;;;29.25;18.42;;;6.50;99.90;;;;;;4982050;28;20079;-91
2022/03/29 04:32:39;;;;;;;31.25;19.40;;;6.60;99.90;;;;;;5003209;28;20099;-92
2022/03/29 04:35:05;;;;;;;34.15;20.17;;;7.30;99.90;;;;;;5035612;28;20120;-91
2022/03/29 04:37:31;;;;;;;34.00;20.00;;;6.60;99.90;;;;;;4999017;28;20079;-91
2022/03/29 04:39:57;;;;;;;37.38;19.98;;;6.60;99.90;;;;;;5027206;28;20072;-91
2022/03/29 04:42:23;;;;;;;39.88;20.52;;;6.60;99.90;;;;;;4996321;28;20042;-92
2022/03/29 04:44:48;;;;;;;34.70;19.58;;;6.50;99.90;;;;;;4998326;28;20038;-92
2022/03/29 04:47:14;;;;;;;35.20;21.00;;;6.50;99.90;;;;;;5015446;28;20044;-92
2022/03/29 04:49:40;;;;;;;31.58;19.30;;;6.50;99.90;;;;;;5027005;28;20030;-92
2022/03/29 04:52:06;;;;;;;34.85;19.92;;;6.50;99.90;;;;;;5030982;28;20116;-91
2022/03/29 04:54:32;;;;;;;35.90;21.30;;;6.60;99.90;;;;;;5031719;28;20124;-91
2022/03/29 04:57:00;;;;;;;34.50;21.17;;;6.90;99.90;;;;;;4997569;28;20125;-86
2022/03/29 04:59:26;;;;;;;36.97;20.48;;;6.60;99.90;;;;;;5030545;28;20083;-86
2022/03/29 05:01:52;;;;;;;33.33;20.65;;;6.50;99.90;;;;;;5014193;28;20124;-87
2022/03/29 05:04:18;;;;;;;38.70;20.98;;;6.50;99.90;;;;;;5010395;28;20144;-86
2022/03/29 05:06:44;;;;;;;39.55;21.02;;;6.50;99.90;;;;;;4995928;28;20458;-86
2022/03/29 05:09:10;;;;;;;34.83;20.83;;;6.50;99.90;;;;;;5012672;28;20065;-86
2022/03/29 05:11:35;;;;;;;38.60;22.98;;;6.50;99.90;;;;;;5028051;28;20060;-92
2022/03/29 05:14:01;;;;;;;32.35;20.17;;;6.50;99.90;;;;;;5016393;28;20081;-86
2022/03/29 05:16:27;;;;;;;35.72;20.52;;;7.30;99.90;;;;;;5025543;28;20048;-86
2022/03/29 05:18:53;;;;;;;35.28;21.60;;;6.50;99.90;;;;;;5030273;28;20399;-87
2022/03/29 05:21:18;;;;;;;42.10;22.45;;;6.50;99.90;;;;;;5016267;28;22122;-86
2022/03/29 05:23:44;;;;;;;39.75;21.35;;;6.50;99.90;;;;;;5013481;28;20033;-86
2022/03/29 05:26:10;;;;;;;35.55;20.98;;;7.70;99.90;;;;;;5015748;28;20126;-86
2022/03/29 05:28:36;;;;;;;33.22;21.55;;;6.80;99.90;;;;;;5012175;28;20507;-86
2022/03/29 05:31:02;;;;;;;36.15;22.25;;;6.50;99.90;;;;;;5014785;28;20042;-86
2022/03/29 05:33:27;;;;;;;38.25;22.13;;;6.50;99.90;;;;;;5027565;28;20087;-92
2022/03/29 05:35:53;;;;;;;32.78;21.15;;;6.50;99.90;;;;;;5006778;28;20052;-91
2022/03/29 05:38:19;;;;;;;42.08;21.80;;;6.50;99.90;;;;;;5003718;28;20037;-91
2022/03/29 05:40:45;;;;;;;36.22;21.95;;;6.50;99.90;;;;;;5019185;28;20038;-91
2022/03/29 05:43:11;;;;;;;36.60;22.63;;;6.90;99.90;;;;;;5033550;28;20103;-91
2022/03/29 05:45:39;;;;;;;41.92;22.30;;;6.70;99.90;;;;;;4998100;28;20038;-91
2022/03/29 05:50:52;;;;;;;38.38;21.80;;;6.50;99.90;;;;;;5018067;28;20041;-92
2022/03/29 05:53:18;;;;;;;34.95;21.08;;;6.50;99.90;;;;;;5032569;28;20087;-92
2022/03/29 05:55:45;;;;;;;38.20;22.15;;;6.60;99.90;;;;;;5016783;28;20045;-92
2022/03/29 05:58:11;;;;;;;37.25;22.80;;;6.60;99.90;;;;;;5034335;28;20064;-92
2022/03/29 06:00:38;;;;;;;40.72;22.42;;;6.80;99.90;;;;;;5014885;28;20121;-92
2022/03/29 06:03:03;;;;;;;45.35;22.85;;;6.90;99.90;;;;;;5008423;28;20053;-92
2022/03/29 06:05:29;;;;;;;40.90;22.95;;;6.70;99.90;;;;;;4995645;28;20038;-86
2022/03/29 06:07:55;;;;;;;40.53;23.33;;;6.60;99.90;;;;;;5027912;28;20121;-85
2022/03/29 06:10:21;;;;;;;46.92;24.13;;;6.70;99.90;;;;;;5015880;28;20730;-85
2022/03/29 06:12:47;;;;;;;41.30;22.75;;;6.70;99.90;;;;;;5032861;28;20045;-85
2022/03/29 06:15:14;;;;;;;34.60;21.67;;;6.70;99.90;;;;;;5032055;28;20079;-86
2022/03/29 06:17:40;;;;;;;37.58;23.73;;;6.80;99.90;;;;;;5032436;28;20503;-86
2022/03/29 06:20:09;;;;;;;39.92;22.95;;;7.40;99.90;;;;;;5012900;28;20037;-86
2022/03/29 06:22:44;;;;;;;40.13;24.15;;;6.80;99.90;;;;;;5009756;28;20472;-86
2022/03/29 06:25:11;;;;;;;39.30;23.60;;;6.90;99.90;;;;;;5045507;28;20061;-86
2022/03/29 06:27:37;;;;;;;35.90;23.13;;;6.90;99.90;;;;;;5009939;28;20522;-86
2022/03/29 06:30:04;;;;;;;39.35;23.20;;;6.90;99.90;;;;;;5008764;28;20069;-86
2022/03/29 06:32:30;;;;;;;37.25;24.10;;;7.00;99.90;;;;;;5033107;28;20095;-86
2022/03/29 06:34:56;;;;;;;45.38;25.27;;;7.30;99.90;;;;;;5012227;28;20042;-86
2022/03/29 06:37:21;;;;;;;38.20;24.08;;;7.00;99.90;;;;;;5033163;28;20399;-86
2022/03/29 06:39:47;;;;;;;41.25;22.88;;;7.10;99.90;;;;;;5019341;28;20041;-91
2022/03/29 06:42:18;;;;;;;36.50;23.33;;;7.10;99.90;;;;;;5016958;28;20395;-92
2022/03/29 06:44:44;;;;;;;39.13;23.23;;;7.10;99.90;;;;;;5000946;28;20049;-92
2022/03/29 06:47:11;;;;;;;38.05;23.08;;;7.70;99.90;;;;;;5017002;28;20559;-91
2022/03/29 06:49:37;;;;;;;35.95;23.60;;;7.10;99.90;;;;;;5001189;28;20045;-92
2022/03/29 06:52:03;;;;;;;46.55;24.38;;;7.40;99.90;;;;;;4999888;28;20435;-91
2022/03/29 06:54:30;;;;;;;43.35;23.60;;;7.20;99.90;;;;;;4988478;28;20053;-91
2022/03/29 06:56:56;;;;;;;39.10;23.15;;;7.20;99.90;;;;;;5003203;28;20049;-86
2022/03/29 06:59:22;;;;;;;41.65;23.77;;;7.60;99.90;;;;;;5010515;28;20037;-85
2022/03/29 07:01:48;;;;;;;39.58;23.40;;;7.30;99.90;;;;;;5032224;28;20041;-86
2022/03/29 07:04:13;;;;;;;41.78;24.05;;;8.10;99.90;;;;;;4998954;28;20063;-85
2022/03/29 07:06:39;;;;;;;39.47;23.55;;;7.40;99.90;;;;;;4999715;28;20037;-85
2022/03/29 07:11:49;;;;;;;40.47;23.85;;;8.20;99.90;;;;;;5013792;28;20040;-84
2022/03/29 07:14:15;;;;;;;39.45;23.88;;;7.50;99.90;;;;;;5000298;28;20355;-84
2022/03/29 07:16:42;;;;;;;39.58;23.02;;;7.50;99.90;;;;;;5029414;28;20128;-85
2022/03/29 07:19:09;;;;;;;38.25;23.40;;;7.50;99.90;;;;;;5027369;28;20383;-86
2022/03/29 07:21:37;;;;;;;37.95;22.00;;;8.00;99.90;;;;;;5026572;28;20125;-87
2022/03/29 07:24:04;;;;;;;39.92;23.13;;;7.60;99.90;;;;;;5031002;28;20466;-87
2022/03/29 07:26:30;;;;;;;37.15;22.35;;;7.60;99.90;;;;;;5015578;28;20072;-87
2022/03/29 07:28:56;;;;;;;36.15;21.70;;;7.60;99.90;;;;;;5030575;28;20049;-85
2022/03/29 07:31:22;;;;;;;37.28;22.67;;;8.50;99.90;;;;;;5009347;28;20037;-85
2022/03/29 07:33:48;;;;;;;39.97;22.40;;;7.70;99.90;;;;;;4981345;28;20033;-85
2022/03/29 07:36:14;;;;;;;37.83;22.33;;;7.70;99.90;;;;;;5045452;28;20045;-85
2022/03/29 07:38:40;;;;;;;37.08;21.83;;;7.70;99.90;;;;;;5017516;28;20084;-85
2022/03/29 07:41:06;;;;;;;37.78;23.67;;;7.70;99.90;;;;;;5028681;28;20038;-85
2022/03/29 07:43:32;;;;;;;36.92;22.25;;;8.10;99.90;;;;;;4996389;28;20057;-85
2022/03/29 07:45:58;;;;;;;36.47;21.23;;;7.80;99.90;;;;;;5014734;28;20042;-91
2022/03/29 07:48:24;;;;;;;34.58;22.73;;;7.70;99.90;;;;;;4995978;28;20096;-91
2022/03/29 07:50:50;;;;;;;37.05;21.75;;;7.80;99.90;;;;;;5031252;28;20090;-91
2022/03/29 07:53:16;;;;;;;38.42;21.77;;;7.80;99.90;;;;;;5010605;28;20120;-91
2022/03/29 07:55:41;;;;;;;37.30;21.30;;;7.80;99.90;;;;;;5031811;28;20483;-91
2022/03/29 07:58:08;;;;;;;42.42;21.40;;;7.80;99.90;;;;;;4993382;28;20427;-91
2022/03/29 08:00:35;;;;;;;38.63;21.95;;;7.90;99.90;;;;;;5027304;28;20045;-92
2022/03/29 08:03:07;;;;;;;38.25;21.75;;;8.70;99.90;;;;;;5003581;23;20063;-86
2022/03/29 08:05:34;;;;;;;38.42;20.40;;;8.00;99.90;;;;;;4989268;28;20054;-86
2022/03/29 08:08:01;;;;;;;37.10;21.27;;;8.10;99.90;;;;;;4967006;28;20176;-87
2022/03/29 08:10:29;;;;;;;42.05;21.30;;;8.10;99.90;;;;;;4990106;28;20042;-87
2022/03/29 08:13:03;;;;;;;40.63;21.92;;;8.20;99.90;;;;;;4972206;28;20086;-87
2022/03/29 08:15:29;;;;;;;35.92;20.77;;;8.30;99.90;;;;;;4989367;28;20038;-86
2022/03/29 08:17:56;;;;;;;34.63;19.08;;;8.40;99.90;;;;;;4968591;28;20051;-88
2022/03/29 08:20:22;;;;;;;36.42;19.85;;;8.40;99.90;;;;;;4989365;28;20042;-88
2022/03/29 08:22:48;;;;;;;37.25;20.73;;;8.50;99.90;;;;;;4973640;28;20049;-89
2022/03/29 08:25:15;;;;;;;37.05;19.42;;;9.00;99.90;;;;;;4973500;28;20039;-89
2022/03/29 08:27:43;;;;;;;38.28;20.15;;;8.70;99.90;;;;;;4986392;28;20101;-90
2022/03/29 08:30:10;;;;;;;36.33;20.13;;;8.80;99.90;;;;;;4973487;28;20041;-89
2022/03/29 08:32:36;;;;;;;36.45;20.70;;;8.80;99.90;;;;;;4989347;28;20122;-90
2022/03/29 08:35:03;;;;;;;40.80;19.88;;;8.90;99.90;;;;;;4972906;28;20034;-90
2022/03/29 08:37:29;;;;;;;32.58;19.23;;;8.90;99.90;;;;;;4969308;28;20050;-89
2022/03/29 08:39:55;;;;;;;36.78;20.77;;;8.90;99.90;;;;;;4989724;28;20489;-90
2022/03/29 08:42:23;;;;;;;36.00;20.02;;;8.90;99.90;;;;;;4989273;28;20396;-90
2022/03/29 08:44:49;;;;;;;37.10;20.08;;;9.00;99.90;;;;;;4987633;28;20038;-90
2022/03/29 08:47:16;;;;;;;36.70;20.38;;;9.10;99.90;;;;;;4971754;28;20089;-89
2022/03/29 08:49:44;;;;;;;37.72;20.58;;;9.10;99.90;;;;;;4988917;28;20105;-90
2022/03/29 08:52:11;;;;;;;38.65;21.98;;;9.10;99.90;;;;;;4987957;28;20125;-90
2022/03/29 08:54:37;;;;;;;41.50;21.45;;;9.10;99.90;;;;;;4988377;28;20056;-90
2022/03/29 08:57:03;;;;;;;42.35;21.70;;;9.20;99.90;;;;;;4973206;28;20038;-91
2022/03/29 08:59:28;;;;;;;41.20;21.25;;;9.30;99.90;;;;;;4973156;28;20126;-90
2022/03/29 09:02:07;;;;;;;33.83;21.67;;;9.40;99.90;;;;;;4972248;28;20097;-90
2022/03/29 09:04:33;;;;;;;35.03;20.00;;;9.50;99.90;;;;;;4986577;28;20045;-91
2022/03/29 09:07:01;;;;;;;37.50;20.27;;;9.60;99.90;;;;;;4976623;28;20384;-90
2022/03/29 09:09:27;;;;;;;38.75;20.80;;;9.70;99.90;;;;;;4992195;28;20197;-87
2022/03/29 09:11:56;;;;;;;39.70;21.60;;;9.90;99.90;;;;;;4992250;28;20049;-86
2022/03/29 09:14:23;;;;;;;37.55;21.80;;;10.40;99.90;;;;;;4976234;28;20041;-87
2022/03/29 09:16:51;;;;;;;36.42;22.15;;;10.40;99.90;;;;;;4977011;28;20480;-87
2022/03/29 09:19:19;;;;;;;37.05;20.05;;;10.70;99.90;;;;;;4992789;28;20053;-87
2022/03/29 09:21:45;;;;;;;33.83;19.60;;;11.10;99.90;;;;;;4979914;28;20092;-87
2022/03/29 09:24:17;;;;;;;32.60;20.10;;;11.70;99.90;;;;;;4959316;28;20053;-86
2022/03/29 09:26:52;;;;;;;33.13;18.88;;;12.00;99.90;;;;;;4990067;28;20038;-86
2022/03/29 09:29:23;;;;;;;28.15;17.77;;;12.30;99.90;;;;;;4979345;28;20065;-86
2022/03/29 09:32:08;;;;;;;32.38;18.63;;;12.60;99.90;;;;;;4994930;28;20044;-86
2022/03/29 09:34:35;;;;;;;30.05;19.23;;;12.80;99.90;;;;;;4980024;28;20129;-87
2022/03/29 09:37:03;;;;;;;32.65;18.25;;;13.00;99.90;;;;;;4990144;28;20484;-86
2022/03/29 09:39:32;;;;;;;30.15;17.83;;;12.90;99.90;;;;;;4993088;28;20030;-86
2022/03/29 09:42:00;;;;;;;30.05;16.90;;;13.10;99.90;;;;;;4995168;28;20042;-91
2022/03/29 09:44:40;;;;;;;30.40;16.17;;;13.10;99.90;;;;;;4992567;28;20440;-90
2022/03/29 09:47:07;;;;;;;31.92;16.92;;;13.00;99.90;;;;;;4995370;28;20053;-90
2022/03/29 09:50:08;;;;;;;31.67;17.80;;;12.60;99.90;;;;;;4975650;28;20030;-90
2022/03/29 09:52:39;;;;;;;28.00;15.07;;;12.60;99.90;;;;;;4991149;28;20432;-90
2022/03/29 09:55:18;;;;;;;27.65;14.75;;;12.50;99.90;;;;;;4995108;28;20404;-90
2022/03/29 09:57:55;;;;;;;28.00;14.18;;;12.60;99.90;;;;;;4960554;28;20722;-90
2022/03/29 10:00:30;;;;;;;27.95;13.70;;;12.80;99.90;;;;;;5011228;28;20046;-87
2022/03/29 10:02:57;;;;;;;25.45;12.85;;;13.10;99.90;;;;;;4992577;28;20065;-86
2022/03/29 10:05:24;;;;;;;25.70;13.18;;;13.30;99.90;;;;;;4986653;28;20045;-87
2022/03/29 10:09:25;;;;;;;27.85;12.35;;;13.60;99.90;;;;;;4971385;28;20033;-87
2022/03/29 10:10:46;;;;;;;26.92;13.32;;;13.70;99.90;;;;;;4996818;28;20515;-87
2022/03/29 10:13:13;;;;;;;21.63;11.60;;;14.00;99.90;;;;;;4997339;28;20117;-87
2022/03/29 10:15:40;;;;;;;30.70;12.15;;;14.40;99.90;;;;;;4977470;28;20042;-90
2022/03/29 10:18:07;;;;;;;25.92;11.65;;;14.80;99.90;;;;;;4979068;28;20049;-91
2022/03/29 10:20:34;;;;;;;27.27;11.63;;;14.90;99.90;;;;;;4990368;28;20039;-91
2022/03/29 10:23:00;;;;;;;23.40;11.93;;;14.80;99.90;;;;;;4984322;28;20117;-90
2022/03/29 10:25:27;;;;;;;26.27;11.82;;;14.30;99.90;;;;;;4978320;28;20046;-90
2022/03/29 10:27:56;;;;;;;21.90;10.00;;;14.10;99.90;;;;;;4994707;28;20043;-90
2022/03/29 10:30:31;;;;;;;29.20;11.23;;;13.80;99.90;;;;;;4992052;28;20037;-90
2022/03/29 10:33:23;;;;;;;19.48;9.98;;;13.60;99.90;;;;;;4993464;28;20038;-88
2022/03/29 10:36:05;;;;;;;21.27;9.40;;;13.30;99.90;;;;;;4989144;28;20049;-86
2022/03/29 10:38:43;;;;;;;23.42;9.75;;;13.20;99.90;;;;;;4972424;28;20042;-87
2022/03/29 10:41:30;;;;;;;27.40;9.70;;;13.30;99.90;;;;;;4977397;28;20052;-87
2022/03/29 10:44:01;;;;;;;23.40;9.32;;;13.60;99.90;;;;;;4983848;28;20082;-87
2022/03/29 10:46:54;;;;;;;20.10;8.40;;;14.40;99.90;;;;;;4990572;28;20409;-87
2022/03/29 10:49:27;;;;;;;21.98;8.98;;;15.80;99.90;;;;;;4973155;28;20504;-89
2022/03/29 10:52:05;;;;;;;23.58;8.98;;;16.70;99.90;;;;;;4989625;28;20042;-87
2022/03/29 10:54:37;;;;;;;21.75;9.25;;;17.10;99.90;;;;;;5005686;28;20384;-87
2022/03/29 10:57:24;;;;;;;20.80;9.50;;;17.20;99.90;;;;;;4976553;28;20044;-88
2022/03/29 11:00:17;;;;;;;;;;;17.00;98.80;;;;;;5010453;28;20115;-87
2022/03/29 11:03:12;;;;;;;26.17;9.38;;;16.60;98.00;;;;;;5010715;28;20004;-87
2022/03/29 11:06:02;;;;;;;22.35;9.70;;;16.40;97.90;;;;;;4994436;28;20376;-91
2022/03/29 11:08:29;;;;;;;20.13;8.45;;;16.20;98.80;;;;;;4994301;28;20046;-90
2022/03/29 11:10:55;;;;;;;24.80;9.25;;;16.20;99.00;;;;;;4991156;28;20038;-90
2022/03/29 11:13:29;;;;;;;24.38;9.18;;;16.30;99.10;;;;;;4970584;28;20103;-90
2022/03/29 11:16:01;;;;;;;24.52;9.93;;;16.20;98.30;;;;;;4987409;28;20117;-90
2022/03/29 11:18:36;;;;;;;25.13;10.88;;;16.20;98.60;;;;;;4994580;28;20524;-90
2022/03/29 11:21:03;;;;;;;21.67;9.35;;;16.10;98.50;;;;;;4977883;28;20046;-92
2022/03/29 11:23:33;;;;;;;23.10;9.90;;;16.00;98.60;;;;;;4996336;28;20045;-89
2022/03/29 11:26:16;;;;;;;23.35;9.85;;;15.90;98.50;;;;;;4993320;28;20034;-89
2022/03/29 11:28:51;;;;;;;22.27;10.05;;;15.70;97.90;;;;;;4992862;28;20046;-90
2022/03/29 11:31:18;;;;;;;26.40;11.75;;;15.30;98.80;;;;;;4972014;28;20049;-90
2022/03/29 11:33:51;;;;;;;23.42;10.70;;;15.00;99.30;;;;;;4976495;28;20037;-89
2022/03/29 11:36:19;;;;;;;22.65;10.55;;;14.80;99.30;;;;;;4964340;28;20656;-89
2022/03/29 11:38:45;;;;;;;25.55;9.90;;;14.70;99.60;;;;;;4974593;28;20109;-87
2022/03/29 11:41:33;;;;;;;32.85;10.27;;;14.70;99.70;;;;;;4979682;28;20061;-87
2022/03/29 11:44:05;;;;;;;23.30;9.23;;;14.70;98.70;;;;;;4991242;28;20041;-87
2022/03/29 11:46:49;;;;;;;26.02;9.55;;;14.70;99.70;;;;;;4988892;28;20396;-87
2022/03/29 11:49:16;;;;;;;22.85;9.48;;;14.70;99.60;;;;;;4994194;28;20029;-87
2022/03/29 11:51:41;;;;;;;21.85;8.88;;;14.40;99.90;;;;;;4995053;28;20519;-88
2022/03/29 11:54:07;;;;;;;21.13;8.70;;;14.30;99.90;;;;;;4994721;28;20037;-88
2022/03/29 11:56:37;;;;;;;18.85;9.18;;;14.20;99.90;;;;;;4979564;28;20480;-87
2022/03/29 11:59:06;;;;;;;24.50;9.40;;;14.40;99.90;;;;;;4978071;28;20049;-87
2022/03/29 12:01:34;;;;;;;23.65;8.27;;;14.60;99.90;;;;;;4979370;28;20103;-87
2022/03/29 12:04:07;;;;;;;23.67;8.98;;;15.10;99.90;;;;;;4969400;28;20509;-87
2022/03/29 12:06:46;;;;;;;24.65;9.30;;;15.90;99.90;;;;;;4970626;28;20079;-87
2022/03/29 12:09:16;;;;;;;21.55;8.07;;;16.20;98.30;;;;;;4973202;28;20035;-87
2022/03/29 12:11:42;;;;;;;21.52;9.23;;;15.90;98.30;;;;;;4954224;28;20047;-87
2022/03/29 12:14:09;;;;;;;23.30;9.20;;;15.60;98.40;;;;;;4950862;29;20039;-88
2022/03/29 12:16:38;;;;;;;25.23;9.00;;;15.10;98.70;;;;;;4955112;28;20093;-87
2022/03/29 12:19:12;;;;;;;23.52;8.38;;;14.70;98.70;;;;;;4954660;28;20050;-88
2022/03/29 12:21:39;;;;;;;26.42;9.75;;;14.30;99.40;;;;;;4972747;28;20436;-87
2022/03/29 12:24:12;;;;;;;21.73;8.55;;;14.10;99.60;;;;;;4954083;28;20043;-88
2022/03/29 12:27:04;;;;;;;21.17;9.18;;;13.80;99.90;;;;;;4954408;28;20389;-87
2022/03/29 12:29:31;;;;;;;31.48;12.70;;;13.60;99.90;;;;;;4955080;28;20035;-87
2022/03/29 12:32:02;;;;;;;29.65;13.82;;;13.50;99.90;;;;;;4972451;28;20129;-87
2022/03/29 12:34:30;;;;;;;31.58;13.98;;;13.30;99.90;;;;;;4971463;28;20492;-87
2022/03/29 12:36:59;;;;;;;22.50;10.50;;;13.20;99.90;;;;;;4949782;28;20047;-87
2022/03/29 12:39:32;;;;;;;23.00;9.73;;;13.10;99.90;;;;;;4971788;28;20070;-87
2022/03/29 12:41:58;;;;;;;21.95;9.40;;;13.20;99.90;;;;;;4971736;28;20053;-87
2022/03/29 12:44:47;;;;;;;22.92;9.10;;;13.40;99.90;;;;;;4971105;28;20030;-88
2022/03/29 12:47:15;;;;;;;21.95;9.82;;;13.60;99.90;;;;;;4971817;28;20105;-90
2022/03/29 12:49:42;;;;;;;22.98;9.30;;;14.10;99.90;;;;;;4971521;28;20043;-90